Time;durP1;ratioP1;P1;durP2;ratioP2;P2;SDS_P1;SDS_P2;PMS_P1;PMS_P2;Temp;Humidity;BMP_temperature;BMP_pressure;BME280_temperature;BME280_humidity;BME280_pressure;Samples;Min_cycle;Max_cycle;Signal;HPM_P1;HPM_P2
2023/02/05 00:00:15;;;;;;;;;;;;;;;9.42;45.27;103010.69;4922890;28;98408;-68
2023/02/05 00:02:40;;;;;;;;;;;;;;;9.40;44.34;103007.38;4918940;28;99218;-68
2023/02/05 00:05:07;;;;;;;;;;;;;;;9.38;44.73;103006.72;4921942;28;116036;-67
2023/02/05 00:07:32;;;;;;;;;;;;;;;9.37;44.68;103013.16;4922509;28;100181;-67
2023/02/05 00:09:58;;;;;;;;;;;;;;;9.36;44.88;103009.63;4939581;28;119992;-67
2023/02/05 00:12:24;;;;;;;;;;;;;;;9.33;44.98;103013.53;4921325;28;127616;-68
2023/02/05 00:14:51;;;;;;;;;;;;;;;9.33;44.53;103015.41;4918027;28;117960;-68
2023/02/05 00:17:17;;;;;;;;;;;;;;;9.32;45.08;103017.25;4925136;28;98129;-67
2023/02/05 00:19:43;;;;;;;;;;;;;;;9.30;44.87;103005.00;4925565;28;127992;-68
2023/02/05 00:22:08;;;;;;;;;;;;;;;9.29;45.00;102998.81;4928031;28;112973;-66
2023/02/05 00:24:34;;;;;;;;;;;;;;;9.28;45.19;103001.72;4927206;28;117635;-67
2023/02/05 00:27:00;;;;;;;;;;;;;;;9.28;45.40;103005.22;4925627;28;119743;-66
2023/02/05 00:29:26;;;;;;;;;;;;;;;9.27;45.37;103011.63;4921719;28;128206;-66
2023/02/05 00:31:52;;;;;;;;;;;;;;;9.26;45.31;103007.28;4927197;28;128790;-67
2023/02/05 00:34:18;;;;;;;;;;;;;;;9.25;44.68;102996.72;4929750;28;117776;-66
2023/02/05 00:36:44;;;;;;;;;;;;;;;9.24;45.44;103000.44;4942185;28;98750;-66
2023/02/05 00:39:12;;;;;;;;;;;;;;;9.22;44.90;103000.63;4923765;28;99361;-67
2023/02/05 00:41:38;;;;;;;;;;;;;;;9.21;45.11;103007.03;4921773;28;98085;-67
2023/02/05 00:44:05;;;;;;;;;;;;;;;9.20;44.65;103005.38;4923132;28;98128;-67
2023/02/05 00:46:30;;;;;;;;;;;;;;;9.18;44.31;102999.34;4959394;28;126076;-67
2023/02/05 00:48:56;;;;;;;;;;;;;;;9.17;45.06;102999.56;4939151;28;127295;-67
2023/02/05 00:51:22;;;;;;;;;;;;;;;9.17;44.65;103004.94;4940348;28;127865;-67
2023/02/05 00:53:48;;;;;;;;;;;;;;;9.15;44.66;103013.19;4941893;28;97892;-67
2023/02/05 00:56:14;;;;;;;;;;;;;;;9.14;44.94;103022.31;4930924;28;129524;-67
2023/02/05 00:58:40;;;;;;;;;;;;;;;9.13;45.01;103028.72;4940648;28;128130;-68
2023/02/05 01:01:06;;;;;;;;;;;;;;;9.13;44.54;103031.41;4925513;28;98705;-67
2023/02/05 01:03:32;;;;;;;;;;;;;;;9.10;45.18;103024.53;4957592;28;115683;-68
2023/02/05 01:05:58;;;;;;;;;;;;;;;9.09;44.93;103020.19;4940056;28;98361;-68
2023/02/05 01:08:27;;;;;;;;;;;;;;;9.09;44.29;103017.50;4958666;28;98674;-66
2023/02/05 01:10:53;;;;;;;;;;;;;;;9.07;45.04;103014.16;4938903;28;126614;-66
2023/02/05 01:13:19;;;;;;;;;;;;;;;9.06;44.96;103017.91;4928144;28;111562;-67
2023/02/05 01:15:45;;;;;;;;;;;;;;;9.05;45.03;103020.78;4944364;28;99829;-67
2023/02/05 01:18:11;;;;;;;;;;;;;;;9.03;44.98;103020.97;4921682;28;128191;-67
2023/02/05 01:20:37;;;;;;;;;;;;;;;9.02;44.59;103013.09;4938929;28;97979;-67
2023/02/05 01:23:03;;;;;;;;;;;;;;;9.00;44.68;103007.94;4924419;28;98136;-67
2023/02/05 01:25:29;;;;;;;;;;;;;;;8.99;44.99;103010.81;4941014;28;122241;-67
2023/02/05 01:27:55;;;;;;;;;;;;;;;8.98;44.45;103009.97;4926420;28;120681;-67
2023/02/05 01:30:21;;;;;;;;;;;;;;;8.96;44.58;103012.03;4941367;28;126208;-67
2023/02/05 01:32:47;;;;;;;;;;;;;;;8.96;44.94;103009.34;4940146;28;115292;-67
2023/02/05 01:35:13;;;;;;;;;;;;;;;8.94;44.56;103003.31;4923722;28;127718;-67
2023/02/05 01:37:39;;;;;;;;;;;;;;;8.94;44.89;103006.00;4939787;28;126049;-67
2023/02/05 01:40:05;;;;;;;;;;;;;;;8.92;44.96;102991.94;4940711;28;122887;-67
2023/02/05 01:42:31;;;;;;;;;;;;;;;8.90;44.68;102985.91;4925911;28;101823;-67
2023/02/05 01:45:23;;;;;;;;;;;;;;;8.90;44.81;102977.84;4940972;28;98680;-67
2023/02/05 01:47:51;;;;;;;;;;;;;;;8.89;44.83;102978.03;4935594;28;99899;-66
2023/02/05 01:50:20;;;;;;;;;;;;;;;8.87;44.49;102964.78;4907455;28;97984;-67
2023/02/05 01:52:46;;;;;;;;;;;;;;;8.86;44.80;102968.50;4951710;28;113540;-67
2023/02/05 01:55:12;;;;;;;;;;;;;;;8.83;44.63;102964.31;4924774;28;106664;-68
2023/02/05 01:57:37;;;;;;;;;;;;;;;8.83;45.00;102964.31;4925241;28;128364;-66
2023/02/05 02:00:04;;;;;;;;;;;;;;;8.82;44.74;102959.16;4926453;28;127971;-67
2023/02/05 02:02:30;;;;;;;;;;;;;;;8.79;44.11;102946.91;4941379;28;102162;-67
2023/02/05 02:04:59;;;;;;;;;;;;;;;8.79;45.22;102940.72;4941297;28;129082;-67
2023/02/05 02:07:25;;;;;;;;;;;;;;;8.79;44.23;102951.47;4927291;28;98073;-67
2023/02/05 02:09:51;;;;;;;;;;;;;;;8.77;45.06;102951.69;4925710;28;99822;-67
2023/02/05 02:12:21;;;;;;;;;;;;;;;8.75;44.34;102951.03;4926469;28;108546;-67
2023/02/05 02:14:48;;;;;;;;;;;;;;;8.74;44.93;102944.00;4960644;28;100376;-66
2023/02/05 02:17:16;;;;;;;;;;;;;;;8.74;44.59;102943.16;4943086;28;118748;-67
2023/02/05 02:19:43;;;;;;;;;;;;;;;8.73;44.54;102925.38;4941662;28;100052;-67
2023/02/05 02:22:12;;;;;;;;;;;;;;;8.71;44.89;102922.03;4960573;28;97946;-67
2023/02/05 02:24:59;;;;;;;;;;;;;;;8.69;44.87;102918.72;4959070;28;98678;-67
2023/02/05 02:27:34;;;;;;;;;;;;;;;8.68;44.47;102923.25;4939069;28;98193;-67
2023/02/05 02:30:06;;;;;;;;;;;;;;;8.67;45.09;102915.38;4960432;28;97882;-66
2023/02/05 02:32:57;;;;;;;;;;;;;;;8.65;44.43;102918.28;4927136;28;98288;-67
2023/02/05 02:35:31;;;;;;;;;;;;;;;8.63;44.72;102912.25;4957168;28;99645;-67
2023/02/05 02:38:03;;;;;;;;;;;;;;;8.59;44.70;102909.13;4941465;28;97911;-67
2023/02/05 02:40:36;;;;;;;;;;;;;;;8.56;45.13;102912.19;4958494;28;111211;-67
2023/02/05 02:43:23;;;;;;;;;;;;;;;8.50;44.39;102906.78;4926539;28;97985;-66
2023/02/05 02:45:54;;;;;;;;;;;;;;;8.49;44.69;102897.03;4941816;28;98514;-67
2023/02/05 02:48:22;;;;;;;;;;;;;;;8.45;44.73;102901.13;4942118;28;98075;-67
2023/02/05 02:50:49;;;;;;;;;;;;;;;8.42;44.78;102902.38;4924309;28;100031;-67
2023/02/05 02:53:18;;;;;;;;;;;;;;;8.41;44.28;102902.56;4927943;28;105696;-67
2023/02/05 02:55:44;;;;;;;;;;;;;;;8.38;44.74;102906.47;4922533;28;98616;-68
2023/02/05 02:58:18;;;;;;;;;;;;;;;8.36;44.75;102900.41;4924708;28;126949;-67
2023/02/05 03:00:44;;;;;;;;;;;;;;;8.33;44.48;102898.09;4935711;28;112754;-67
2023/02/05 03:03:10;;;;;;;;;;;;;;;8.30;45.11;102896.66;4931654;28;118014;-67
2023/02/05 03:05:36;;;;;;;;;;;;;;;8.30;44.96;102899.34;4926791;28;98083;-68
2023/02/05 03:08:05;;;;;;;;;;;;;;;8.27;44.70;102883.59;4939898;28;127066;-69
2023/02/05 03:10:50;;;;;;;;;;;;;;;8.26;44.96;102887.31;4941989;28;113245;-67
2023/02/05 03:13:15;;;;;;;;;;;;;;;8.25;44.48;102882.13;4940854;28;112948;-67
2023/02/05 03:15:42;;;;;;;;;;;;;;;8.22;44.37;102880.66;4931121;28;98721;-68
2023/02/05 03:18:08;;;;;;;;;;;;;;;8.22;44.61;102874.47;4943095;28;98256;-66
2023/02/05 03:20:44;;;;;;;;;;;;;;;8.23;44.39;102879.63;4943387;28;98135;-66
2023/02/05 03:23:10;;;;;;;;;;;;;;;8.23;44.91;102871.59;4954522;28;98023;-66
2023/02/05 03:25:35;;;;;;;;;;;;;;;8.24;44.75;102875.91;4925415;28;129633;-66
2023/02/05 03:28:01;;;;;;;;;;;;;;;8.25;44.59;102868.69;4928042;28;127803;-66
2023/02/05 03:30:33;;;;;;;;;;;;;;;8.27;45.17;102883.59;4927120;28;126802;-66
2023/02/05 03:33:26;;;;;;;;;;;;;;;8.30;44.60;102888.59;4925603;28;113607;-66
2023/02/05 03:36:00;;;;;;;;;;;;;;;8.30;44.34;102879.72;4943503;28;98119;-66
2023/02/05 03:38:38;;;;;;;;;;;;;;;8.33;44.25;102879.28;4909718;28;128319;-66
2023/02/05 03:41:13;;;;;;;;;;;;;;;8.34;44.60;102880.97;4939771;28;100277;-66
2023/02/05 03:44:18;;;;;;;;;;;;;;;8.35;44.62;102880.78;4941536;28;98275;-65
2023/02/05 03:46:47;;;;;;;;;;;;;;;8.36;44.49;102881.59;4920176;28;127629;-67
2023/02/05 03:49:34;;;;;;;;;;;;;;;8.38;44.18;102893.03;4930426;28;98126;-67
2023/02/05 03:52:08;;;;;;;;;;;;;;;8.40;44.27;102900.91;4959600;28;100645;-67
2023/02/05 03:55:01;;;;;;;;;;;;;;;8.41;44.36;102894.50;4940776;28;109886;-67
2023/02/05 03:57:28;;;;;;;;;;;;;;;8.42;44.39;102901.53;4958542;28;116535;-67
2023/02/05 03:59:54;;;;;;;;;;;;;;;8.42;44.27;102899.69;4943495;28;99661;-67
2023/02/05 04:02:20;;;;;;;;;;;;;;;8.44;44.60;102894.09;4941175;28;127287;-67
2023/02/05 04:04:46;;;;;;;;;;;;;;;8.45;44.28;102898.44;4923955;28;116412;-67
2023/02/05 04:07:11;;;;;;;;;;;;;;;8.45;44.82;102896.63;4940479;28;127090;-67
2023/02/05 04:09:37;;;;;;;;;;;;;;;8.47;44.08;102901.78;4927782;28;129756;-68
2023/02/05 04:12:03;;;;;;;;;;;;;;;8.49;44.62;102902.41;4941200;28;121566;-67
2023/02/05 04:14:29;;;;;;;;;;;;;;;8.48;44.34;102890.81;4940735;28;111461;-66
2023/02/05 04:16:55;;;;;;;;;;;;;;;8.48;44.35;102887.31;4955572;28;127616;-66
2023/02/05 04:19:21;;;;;;;;;;;;;;;8.49;44.41;102886.28;4940814;28;126968;-68
2023/02/05 04:21:47;;;;;;;;;;;;;;;8.49;44.20;102887.13;4957450;28;126640;-67
2023/02/05 04:24:13;;;;;;;;;;;;;;;8.50;44.62;102890.66;4943796;28;117769;-67
2023/02/05 04:26:39;;;;;;;;;;;;;;;8.50;44.45;102901.41;4938134;28;128138;-68
2023/02/05 04:29:05;;;;;;;;;;;;;;;8.50;44.35;102904.91;4939902;28;116254;-67
2023/02/05 04:31:31;;;;;;;;;;;;;;;8.51;44.55;102895.00;4939774;28;128516;-68
2023/02/05 04:33:57;;;;;;;;;;;;;;;8.51;44.87;102903.06;4957804;28;111721;-67
2023/02/05 04:36:22;;;;;;;;;;;;;;;8.51;44.29;102906.56;4957603;28;102000;-66
2023/02/05 04:38:48;;;;;;;;;;;;;;;8.51;44.71;102901.19;4927266;28;128892;-67
2023/02/05 04:41:14;;;;;;;;;;;;;;;8.50;44.84;102896.84;4943877;28;127774;-66
2023/02/05 04:43:40;;;;;;;;;;;;;;;8.51;44.12;102898.50;4957153;28;117459;-67
2023/02/05 04:46:10;;;;;;;;;;;;;;;8.50;44.05;102906.78;4937458;28;126133;-66
2023/02/05 04:48:36;;;;;;;;;;;;;;;8.51;44.55;102911.94;4940073;28;99290;-66
2023/02/05 04:51:06;;;;;;;;;;;;;;;8.51;44.62;102903.06;4942480;28;99813;-66
2023/02/05 04:53:32;;;;;;;;;;;;;;;8.51;44.35;102911.13;4957850;28;97876;-67
2023/02/05 04:56:24;;;;;;;;;;;;;;;8.51;44.88;102905.75;4942419;28;128198;-67
2023/02/05 04:58:50;;;;;;;;;;;;;;;8.49;44.62;102903.28;4956289;28;128416;-67
2023/02/05 05:01:19;;;;;;;;;;;;;;;8.51;44.24;102913.81;4925767;28;128776;-67
2023/02/05 05:03:45;;;;;;;;;;;;;;;8.51;44.37;102908.44;4938554;28;99467;-67
2023/02/05 05:06:11;;;;;;;;;;;;;;;8.50;44.45;102910.31;4937047;28;99882;-67
2023/02/05 05:08:37;;;;;;;;;;;;;;;8.49;44.32;102914.03;4940991;28;124006;-67
2023/02/05 05:11:07;;;;;;;;;;;;;;;8.49;44.62;102907.78;4943146;28;116494;-67
2023/02/05 05:13:34;;;;;;;;;;;;;;;8.49;44.71;102911.34;4939761;28;97945;-67
2023/02/05 05:16:00;;;;;;;;;;;;;;;8.49;44.18;102919.41;4957920;28;98392;-67
2023/02/05 05:18:26;;;;;;;;;;;;;;;8.49;44.58;102922.09;4954729;28;104946;-67
2023/02/05 05:20:52;;;;;;;;;;;;;;;8.49;44.40;102921.22;4942821;28;120858;-67
2023/02/05 05:23:18;;;;;;;;;;;;;;;8.49;44.71;102913.16;4942578;28;111529;-67
2023/02/05 05:25:45;;;;;;;;;;;;;;;8.49;44.32;102916.72;4924595;28;129233;-67
2023/02/05 05:28:11;;;;;;;;;;;;;;;8.48;44.58;102917.72;4938170;28;101653;-67
2023/02/05 05:30:38;;;;;;;;;;;;;;;8.48;44.60;102919.56;4941469;28;123549;-67
2023/02/05 05:33:04;;;;;;;;;;;;;;;8.48;44.59;102916.88;4958887;28;98154;-67
2023/02/05 05:35:29;;;;;;;;;;;;;;;8.49;44.13;102921.22;4927009;28;127184;-67
2023/02/05 05:37:56;;;;;;;;;;;;;;;8.47;44.57;102921.44;4939252;28;127799;-66
2023/02/05 05:45:56;;;;;;;;;;;;;;;8.55;44.60;102928.53;4956280;28;98144;-67
2023/02/05 05:48:22;;;;;;;;;;;;;;;8.63;44.58;102925.69;4941888;28;127641;-68
2023/02/05 05:50:48;;;;;;;;;;;;;;;8.68;44.97;102915.19;4940925;28;127087;-67
2023/02/05 05:53:14;;;;;;;;;;;;;;;8.72;44.60;102913.75;4927886;28;119170;-67
2023/02/05 05:55:40;;;;;;;;;;;;;;;8.77;44.89;102918.56;4940550;28;128050;-67
2023/02/05 05:58:07;;;;;;;;;;;;;;;8.80;44.28;102910.09;4944651;28;98385;-66
2023/02/05 06:00:33;;;;;;;;;;;;;;;8.83;44.87;102912.41;4959160;28;98706;-66
2023/02/05 06:02:59;;;;;;;;;;;;;;;8.85;44.71;102915.72;4940419;28;98218;-67
2023/02/05 06:05:25;;;;;;;;;;;;;;;8.88;44.66;102927.94;4958089;28;128560;-67
2023/02/05 06:07:51;;;;;;;;;;;;;;;8.88;44.49;102923.38;4959011;28;127181;-67
2023/02/05 06:10:16;;;;;;;;;;;;;;;8.90;44.48;102915.13;4945077;28;126984;-68
2023/02/05 06:12:42;;;;;;;;;;;;;;;8.91;44.47;102912.25;4939590;28;97965;-67
2023/02/05 06:15:08;;;;;;;;;;;;;;;8.91;44.47;102912.25;4942312;28;98724;-67
2023/02/05 06:17:34;;;;;;;;;;;;;;;8.92;44.61;102911.22;4959027;28;110111;-67
2023/02/05 06:20:00;;;;;;;;;;;;;;;8.92;44.40;102913.94;4943382;28;125499;-67
2023/02/05 06:22:26;;;;;;;;;;;;;;;8.93;44.70;102920.13;4959241;28;117102;-67
2023/02/05 06:24:52;;;;;;;;;;;;;;;8.94;44.49;102913.72;4926297;28;128162;-67
2023/02/05 06:27:18;;;;;;;;;;;;;;;8.95;44.52;102916.19;4959020;28;98448;-67
2023/02/05 06:29:44;;;;;;;;;;;;;;;8.95;44.45;102916.19;4927539;28;125494;-66
2023/02/05 06:32:10;;;;;;;;;;;;;;;8.97;44.35;102913.31;4941019;28;116113;-67
2023/02/05 06:34:36;;;;;;;;;;;;;;;8.98;44.02;102921.19;4941626;28;130607;-67
2023/02/05 06:37:02;;;;;;;;;;;;;;;8.99;44.62;102919.31;4956995;28;128386;-67
2023/02/05 06:39:28;;;;;;;;;;;;;;;9.00;44.64;102924.53;4928263;28;97990;-67
2023/02/05 06:41:54;;;;;;;;;;;;;;;9.02;44.66;102927.00;4940535;28;115766;-67
2023/02/05 06:44:20;;;;;;;;;;;;;;;9.02;44.70;102930.53;4944076;28;129330;-67
2023/02/05 06:46:45;;;;;;;;;;;;;;;9.05;44.38;102934.69;4930637;28;100441;-67
2023/02/05 06:49:11;;;;;;;;;;;;;;;9.06;43.97;102929.09;4942486;28;125524;-67
2023/02/05 06:51:37;;;;;;;;;;;;;;;9.09;44.38;102933.28;4938937;28;117991;-67
2023/02/05 06:54:03;;;;;;;;;;;;;;;9.10;44.26;102946.50;4926663;28;127791;-67
2023/02/05 06:56:29;;;;;;;;;;;;;;;9.13;44.07;102941.78;4941081;28;118338;-67
2023/02/05 06:58:55;;;;;;;;;;;;;;;9.14;44.46;102944.25;4938971;28;113477;-68
2023/02/05 07:01:21;;;;;;;;;;;;;;;9.17;44.20;102943.03;4940770;28;119556;-67
2023/02/05 07:03:47;;;;;;;;;;;;;;;9.21;44.61;102945.13;4956107;28;127258;-68
2023/02/05 07:06:13;;;;;;;;;;;;;;;9.23;43.88;102935.00;4941465;28;98534;-68
2023/02/05 07:08:39;;;;;;;;;;;;;;;9.29;44.09;102941.44;4940544;28;112568;-67
2023/02/05 07:11:05;;;;;;;;;;;;;;;9.34;44.50;102941.69;4939506;28;117682;-67
2023/02/05 07:13:31;;;;;;;;;;;;;;;9.39;43.96;102933.81;4919779;28;100146;-67
2023/02/05 07:16:00;;;;;;;;;;;;;;;9.46;43.94;102929.31;4920200;28;99593;-68
2023/02/05 07:18:26;;;;;;;;;;;;;;;9.57;44.03;102933.31;4951256;28;97879;-65
2023/02/05 07:20:52;;;;;;;;;;;;;;;9.69;43.78;102931.69;4937444;28;98968;-66
2023/02/05 07:23:18;;;;;;;;;;;;;;;9.81;44.42;102930.06;4921274;28;128782;-67
2023/02/05 07:25:45;;;;;;;;;;;;;;;9.95;43.57;102930.94;4937551;28;104880;-67
2023/02/05 07:28:11;;;;;;;;;;;;;;;10.06;43.76;102919.56;4921112;28;99121;-68
2023/02/05 07:30:36;;;;;;;;;;;;;;;10.19;43.52;102924.16;4954337;28;112940;-67
2023/02/05 07:33:02;;;;;;;;;;;;;;;10.31;43.70;102914.44;4936346;28;127592;-67
2023/02/05 07:35:32;;;;;;;;;;;;;;;10.43;43.34;102913.84;4951893;28;127147;-68
2023/02/05 07:37:58;;;;;;;;;;;;;;;10.56;43.53;102925.44;4920931;28;99377;-68
2023/02/05 07:40:24;;;;;;;;;;;;;;;10.68;43.54;102932.91;4936090;28;98000;-67
2023/02/05 07:42:50;;;;;;;;;;;;;;;10.79;43.41;102933.09;4924042;28;126320;-66
2023/02/05 07:45:16;;;;;;;;;;;;;;;10.97;43.08;102928.94;4920250;28;129041;-67
2023/02/05 07:47:41;;;;;;;;;;;;;;;11.22;43.19;102923.69;4933646;28;128286;-67
2023/02/05 07:50:07;;;;;;;;;;;;;;;11.41;43.09;102939.00;4938587;28;117195;-67
2023/02/05 07:52:33;;;;;;;;;;;;;;;11.48;42.97;102930.88;4952107;28;117079;-67
2023/02/05 07:54:59;;;;;;;;;;;;;;;11.53;43.12;102934.56;4919619;28;99790;-68
2023/02/05 07:57:25;;;;;;;;;;;;;;;11.61;43.30;102925.41;4937536;28;127478;-67
2023/02/05 07:59:51;;;;;;;;;;;;;;;11.59;43.33;102929.34;4937664;28;98098;-67
2023/02/05 08:02:17;;;;;;;;;;;;;;;11.55;43.17;102921.69;4953164;28;125019;-67
2023/02/05 08:04:43;;;;;;;;;;;;;;;11.54;43.35;102921.91;4921711;28;128995;-67
2023/02/05 08:07:11;;;;;;;;;;;;;;;11.53;43.17;102922.94;4938272;28;127323;-68
2023/02/05 08:09:37;;;;;;;;;;;;;;;11.52;43.38;102926.69;4938508;28;103163;-67
2023/02/05 08:12:03;;;;;;;;;;;;;;;11.50;43.47;102921.50;4953338;28;115634;-68
2023/02/05 08:14:30;;;;;;;;;;;;;;;11.52;43.32;102919.41;4934222;28;115113;-68
2023/02/05 08:16:57;;;;;;;;;;;;;;;11.55;43.51;102920.84;4938638;28;98278;-68
2023/02/05 08:19:23;;;;;;;;;;;;;;;11.58;43.29;102909.63;4938794;28;98229;-66
2023/02/05 08:21:49;;;;;;;;;;;;;;;11.63;43.49;102908.97;4950875;28;125774;-67
2023/02/05 08:24:15;;;;;;;;;;;;;;;11.68;43.52;102906.47;4936600;28;128799;-68
2023/02/05 08:26:41;;;;;;;;;;;;;;;11.75;43.31;102909.94;4937693;28;98982;-67
2023/02/05 08:29:07;;;;;;;;;;;;;;;11.83;43.53;102907.03;4955091;28;98101;-66
2023/02/05 08:31:33;;;;;;;;;;;;;;;11.90;43.33;102904.28;4935248;28;125979;-66
2023/02/05 08:33:59;;;;;;;;;;;;;;;11.96;43.34;102889.91;4921838;28;98523;-67
2023/02/05 08:36:25;;;;;;;;;;;;;;;12.03;43.21;102893.41;4937751;28;127590;-68
2023/02/05 08:38:51;;;;;;;;;;;;;;;12.07;43.20;102880.28;4935506;28;112541;-68
2023/02/05 08:41:17;;;;;;;;;;;;;;;12.10;43.29;102874.41;4954211;28;128661;-67
2023/02/05 08:43:47;;;;;;;;;;;;;;;12.15;43.34;102874.59;4921345;28;128386;-67
2023/02/05 08:46:15;;;;;;;;;;;;;;;12.21;43.20;102871.00;4938594;28;105259;-68
2023/02/05 08:48:41;;;;;;;;;;;;;;;12.25;43.27;102854.13;4937029;28;98170;-67
2023/02/05 08:51:09;;;;;;;;;;;;;;;12.32;43.09;102862.19;4934453;28;127801;-68
2023/02/05 08:53:35;;;;;;;;;;;;;;;12.40;43.08;102861.91;4936451;28;116062;-67
2023/02/05 08:56:01;;;;;;;;;;;;;;;12.49;43.12;102865.97;4924858;28;107073;-68
2023/02/05 08:58:27;;;;;;;;;;;;;;;12.59;43.12;102870.06;4933802;28;98303;-67
2023/02/05 09:01:02;;;;;;;;;;;;;;;12.67;42.99;102864.34;4937311;28;121115;-68
2023/02/05 09:03:29;;;;;;;;;;;;;;;12.75;42.90;102858.66;4951522;28;120621;-67
2023/02/05 09:05:56;;;;;;;;;;;;;;;12.86;43.23;102855.22;4919526;28;98421;-68
2023/02/05 09:08:22;;;;;;;;;;;;;;;12.95;42.79;102853.84;4954838;28;98519;-68
2023/02/05 09:10:48;;;;;;;;;;;;;;;13.06;42.97;102840.63;4937000;28;123007;-67
2023/02/05 09:13:14;;;;;;;;;;;;;;;13.17;42.73;102853.41;4937241;28;129987;-67
2023/02/05 09:15:44;;;;;;;;;;;;;;;13.27;42.94;102867.25;4919748;28;127708;-67
2023/02/05 09:18:09;;;;;;;;;;;;;;;13.39;42.91;102868.13;4951800;28;116170;-67
2023/02/05 09:20:40;;;;;;;;;;;;;;;13.49;42.76;102867.59;4934521;28;124998;-68
2023/02/05 09:23:07;;;;;;;;;;;;;;;13.61;42.50;102867.66;4936448;28;98517;-67
2023/02/05 09:25:33;;;;;;;;;;;;;;;13.72;42.76;102872.31;4954586;28;97956;-67
2023/02/05 09:27:59;;;;;;;;;;;;;;;13.86;42.62;102856.66;4936752;28;118339;-68
2023/02/05 09:30:25;;;;;;;;;;;;;;;14.00;42.66;102855.41;4936908;28;121161;-67
2023/02/05 09:32:51;;;;;;;;;;;;;;;14.11;42.68;102851.88;4935605;28;124502;-68
2023/02/05 09:35:17;;;;;;;;;;;;;;;14.27;42.66;102853.09;4920022;28;130653;-68
2023/02/05 09:37:43;;;;;;;;;;;;;;;14.48;42.21;102855.22;4954349;28;116994;-67
2023/02/05 09:40:17;;;;;;;;;;;;;;;14.68;42.26;102849.44;4919109;28;128229;-68
2023/02/05 09:42:59;;;;;;;;;;;;;;;14.84;42.09;102845.19;4921853;28;121073;-68
2023/02/05 09:45:36;;;;;;;;;;;;;;;15.02;41.96;102846.09;4922144;28;98241;-68
2023/02/05 09:48:06;;;;;;;;;;;;;;;15.17;41.88;102835.56;4920421;28;115004;-67
2023/02/05 09:50:32;;;;;;;;;;;;;;;15.31;42.03;102841.53;4952926;28;128816;-67
2023/02/05 09:53:04;;;;;;;;;;;;;;;15.43;42.22;102831.44;4920779;28;98215;-69
2023/02/05 09:55:31;;;;;;;;;;;;;;;15.54;42.24;102833.25;4933139;28;98343;-67
2023/02/05 09:58:18;;;;;;;;;;;;;;;15.67;42.00;102834.88;4936200;28;115671;-68
2023/02/05 10:00:47;;;;;;;;;;;;;;;15.82;41.99;102827.00;4940358;28;98521;-68
2023/02/05 10:03:27;;;;;;;;;;;;;;;15.98;41.84;102819.09;4938061;28;125934;-69
2023/02/05 10:06:03;;;;;;;;;;;;;;;16.12;41.82;102813.09;4953681;28;98170;-67
2023/02/05 10:08:49;;;;;;;;;;;;;;;16.24;41.93;102809.47;4938889;28;115122;-68
2023/02/05 10:11:21;;;;;;;;;;;;;;;16.34;41.90;102804.97;4952998;28;98742;-67
2023/02/05 10:13:47;;;;;;;;;;;;;;;16.46;41.86;102802.13;4919070;28;99632;-68
2023/02/05 10:16:22;;;;;;;;;;;;;;;16.55;41.88;102799.84;4937228;28;111068;-67
2023/02/05 10:19:06;;;;;;;;;;;;;;;16.64;41.87;102807.31;4956508;28;97879;-67
2023/02/05 10:21:51;;;;;;;;;;;;;;;16.67;41.94;102798.63;4955399;28;100780;-67
2023/02/05 10:24:35;;;;;;;;;;;;;;;16.74;41.90;102812.09;4956664;28;98204;-68
2023/02/05 10:27:08;;;;;;;;;;;;;;;16.77;42.00;102813.47;4957600;28;98294;-67
2023/02/05 10:29:52;;;;;;;;;;;;;;;16.81;42.09;102814.63;4956983;28;98259;-69
2023/02/05 10:32:22;;;;;;;;;;;;;;;16.86;42.04;102810.09;4953524;28;127268;-69
2023/02/05 10:34:55;;;;;;;;;;;;;;;16.92;41.91;102814.50;4937849;28;98420;-68
2023/02/05 10:37:39;;;;;;;;;;;;;;;16.93;41.95;102810.69;4957574;28;98561;-70
2023/02/05 10:40:13;;;;;;;;;;;;;;;16.94;41.92;102808.81;4938813;28;98029;-69
2023/02/05 10:42:44;;;;;;;;;;;;;;;16.95;42.15;102815.91;4957348;28;98623;-67
2023/02/05 10:45:19;;;;;;;;;;;;;;;16.96;42.14;102803.09;4907367;28;118331;-68
2023/02/05 10:48:00;;;;;;;;;;;;;;;16.98;42.18;102799.06;4954521;28;97896;-67
2023/02/05 10:50:30;;;;;;;;;;;;;;;17.01;42.16;102793.06;4952641;28;98138;-67
2023/02/05 10:52:56;;;;;;;;;;;;;;;17.07;42.22;102793.97;4934826;28;125221;-69
2023/02/05 10:55:21;;;;;;;;;;;;;;;17.13;42.12;102793.78;4938847;28;98280;-69
2023/02/05 10:57:47;;;;;;;;;;;;;;;17.16;42.18;102789.72;4955020;28;128024;-68
2023/02/05 11:00:18;;;;;;;;;;;;;;;17.18;42.14;102793.03;4936572;28;116764;-67
2023/02/05 11:02:50;;;;;;;;;;;;;;;17.19;42.23;102791.94;4938757;28;124675;-69
2023/02/05 11:05:37;;;;;;;;;;;;;;;17.18;42.17;102790.28;4937401;28;98198;-69
2023/02/05 11:08:03;;;;;;;;;;;;;;;17.14;42.17;102787.25;4954018;28;128285;-67
2023/02/05 11:10:33;;;;;;;;;;;;;;;17.14;42.24;102795.44;4953243;28;98950;-67
2023/02/05 11:13:20;;;;;;;;;;;;;;;17.11;42.25;102781.50;4937278;28;128106;-67
2023/02/05 11:15:53;;;;;;;;;;;;;;;17.11;42.47;102776.03;4938195;28;98641;-67
2023/02/05 11:18:27;;;;;;;;;;;;;;;17.07;42.29;102775.72;4939499;28;97984;-68
2023/02/05 11:20:58;;;;;;;;;;;;;;;17.01;42.43;102773.19;4923434;28;98959;-67
2023/02/05 11:23:24;;;;;;;;;;;;;;;16.95;42.50;102769.59;4917052;28;99491;-67
2023/02/05 11:26:00;;;;;;;;;;;;;;;16.88;42.52;102774.41;4920543;28;125678;-67
2023/02/05 11:28:29;;;;;;;;;;;;;;;16.82;42.71;102779.00;4956654;28;97900;-67
2023/02/05 11:30:56;;;;;;;;;;;;;;;16.77;42.68;102767.19;4937210;28;97997;-67
2023/02/05 11:33:21;;;;;;;;;;;;;;;16.74;42.56;102765.81;4957338;28;98270;-68
2023/02/05 11:35:59;;;;;;;;;;;;;;;16.73;42.69;102755.13;4954811;28;98272;-69
2023/02/05 11:38:28;;;;;;;;;;;;;;;16.71;42.69;102751.84;4940310;28;98837;-70
2023/02/05 11:40:55;;;;;;;;;;;;;;;16.69;42.73;102747.47;4939048;28;99573;-67
2023/02/05 11:43:39;;;;;;;;;;;;;;;16.68;42.75;102742.28;4924413;28;98371;-67
2023/02/05 11:46:07;;;;;;;;;;;;;;;16.70;42.61;102745.56;4937382;28;99910;-68
2023/02/05 11:48:43;;;;;;;;;;;;;;;16.71;42.59;102738.25;4934711;28;103728;-68
2023/02/05 11:51:14;;;;;;;;;;;;;;;16.73;42.55;102749.69;4925157;28;98375;-69
2023/02/05 11:53:54;;;;;;;;;;;;;;;16.73;42.54;102747.81;4954422;28;98079;-68
2023/02/05 11:56:21;;;;;;;;;;;;;;;16.76;42.51;102741.84;4955429;28;126037;-70
2023/02/05 11:58:59;;;;;;;;;;;;;;;16.79;42.61;102746.00;4956881;28;99346;-69
2023/02/05 12:01:27;;;;;;;;;;;;;;;16.81;42.79;102750.09;4939582;28;98387;-67
2023/02/05 12:04:12;;;;;;;;;;;;;;;16.82;42.45;102753.63;4939675;28;98578;-67
2023/02/05 12:06:40;;;;;;;;;;;;;;;16.82;42.44;102748.19;4956886;28;98568;-69
2023/02/05 12:09:09;;;;;;;;;;;;;;;16.81;42.50;102752.00;4917348;28;122676;-70
2023/02/05 12:14:52;;;;;;;;;;;;;;;16.82;42.50;102738.13;4941757;28;98707;-70
2023/02/05 12:17:59;;;;;;;;;;;;;;;16.84;42.61;102735.97;4921441;28;127926;-68
2023/02/05 12:20:27;;;;;;;;;;;;;;;16.86;42.55;102736.53;4935243;28;100071;-69
2023/02/05 12:22:53;;;;;;;;;;;;;;;16.88;42.41;102739.81;4955172;28;97936;-67
2023/02/05 12:25:20;;;;;;;;;;;;;;;16.90;42.51;102742.31;4953341;28;98509;-70
2023/02/05 12:28:15;;;;;;;;;;;;;;;16.92;42.44;102740.94;4934582;28;98179;-67
2023/02/05 12:31:03;;;;;;;;;;;;;;;16.92;42.44;102731.97;4953810;28;100971;-67
2023/02/05 12:33:43;;;;;;;;;;;;;;;16.91;42.58;102735.78;4954331;28;98112;-69
2023/02/05 12:36:34;;;;;;;;;;;;;;;16.87;42.48;102721.84;4956907;28;98794;-69
2023/02/05 12:39:21;;;;;;;;;;;;;;;16.84;42.62;102726.97;4953188;28;98648;-69
2023/02/05 12:42:06;;;;;;;;;;;;;;;16.82;42.47;102726.38;4953047;28;98227;-67
2023/02/05 12:44:53;;;;;;;;;;;;;;;16.78;42.59;102734.28;4069707;28;10000277;-69
2023/02/05 12:47:38;;;;;;;;;;;;;;;16.73;42.55;102725.19;4936732;28;105836;-67
2023/02/05 12:50:46;;;;;;;;;;;;;;;16.63;42.70;102726.72;4937299;28;98576;-69
2023/02/05 12:53:25;;;;;;;;;;;;;;;16.49;42.85;102725.44;4953025;28;105168;-67
2023/02/05 12:56:30;;;;;;;;;;;;;;;16.35;42.93;102722.28;4954455;28;98428;-67